Time;durP1;ratioP1;P1;durP2;ratioP2;P2;SDS_P1;SDS_P2;PMS_P1;PMS_P2;Temp;Humidity;BMP_temperature;BMP_pressure;BME280_temperature;BME280_humidity;BME280_pressure;Samples;Min_cycle;Max_cycle;Signal;HPM_P1;HPM_P2
2022/05/13 00:00:53;;;;;;;5.18;2.53;;;;;;;;;;5032038;28;20080;-68
2022/05/13 00:03:19;;;;;;;8.50;2.70;;;;;;;;;;5034426;28;20034;-63
2022/05/13 00:05:44;;;;;;;7.53;2.63;;;;;;;;;;5035002;28;20021;-65
2022/05/13 00:08:10;;;;;;;8.40;2.33;;;;;;;;;;5035140;28;20474;-68
2022/05/13 00:10:35;;;;;;;4.65;2.58;;;;;;;;;;5034776;28;20428;-63
2022/05/13 00:13:01;;;;;;;4.50;2.47;;;;;;;;;;5035043;28;20022;-65
2022/05/13 00:15:29;;;;;;;10.55;2.40;;;;;;;;;;5034881;28;20399;-66
2022/05/13 00:17:55;;;;;;;5.28;2.75;;;;;;;;;;5035281;28;20490;-63
2022/05/13 00:20:22;;;;;;;4.35;2.35;;;;;;;;;;5035009;28;20032;-67
2022/05/13 00:22:50;;;;;;;4.05;2.13;;;;;;;;;;5035102;28;20021;-66
2022/05/13 00:25:19;;;;;;;6.13;2.60;;;;;;;;;;5034709;28;20045;-68
2022/05/13 00:27:45;;;;;;;6.38;2.50;;;;;;;;;;5034270;28;20013;-67
2022/05/13 00:30:12;;;;;;;9.00;2.60;;;;;;;;;;5034031;28;20029;-67
2022/05/13 00:32:39;;;;;;;8.15;2.25;;;;;;;;;;5034110;28;20021;-68
2022/05/13 00:35:06;;;;;;;5.68;2.20;;;;;;;;;;5033947;28;20025;-67
2022/05/13 00:37:32;;;;;;;6.10;2.40;;;;;;;;;;5034125;28;20029;-66
2022/05/13 00:39:57;;;;;;;6.63;2.65;;;;;;;;;;5034646;28;20030;-66
2022/05/13 00:42:24;;;;;;;8.23;2.80;;;;;;;;;;5034463;28;20025;-67
2022/05/13 00:44:49;;;;;;;6.82;2.63;;;;;;;;;;5034869;28;20415;-67
2022/05/13 00:47:15;;;;;;;5.35;2.50;;;;;;;;;;5034581;28;20025;-68
2022/05/13 00:49:41;;;;;;;6.00;2.47;;;;;;;;;;5034681;28;20463;-66
2022/05/13 00:52:10;;;;;;;4.20;2.60;;;;;;;;;;5034327;28;20502;-68
2022/05/13 00:54:38;;;;;;;4.97;2.40;;;;;;;;;;5034397;28;20088;-66
2022/05/13 00:57:04;;;;;;;6.30;2.47;;;;;;;;;;5033547;28;20041;-65
2022/05/13 00:59:33;;;;;;;8.85;2.63;;;;;;;;;;5033493;28;20036;-65
2022/05/13 01:01:59;;;;;;;6.38;2.45;;;;;;;;;;5033570;28;20171;-66
2022/05/13 01:04:25;;;;;;;6.72;2.92;;;;;;;;;;5033224;28;20116;-64
2022/05/13 01:06:54;;;;;;;3.85;2.33;;;;;;;;;;5033691;28;20056;-66
2022/05/13 01:09:20;;;;;;;9.43;2.63;;;;;;;;;;5034022;28;20451;-68
2022/05/13 01:11:48;;;;;;;8.68;2.60;;;;;;;;;;5033360;28;20029;-68
2022/05/13 01:14:18;;;;;;;6.25;2.70;;;;;;;;;;5033895;28;20057;-65
2022/05/13 01:19:28;;;;;;;5.07;2.42;;;;;;;;;;5033950;28;20552;-69
2022/05/13 01:21:53;;;;;;;4.97;3.00;;;;;;;;;;5033414;28;20029;-67
2022/05/13 01:24:21;;;;;;;4.68;2.60;;;;;;;;;;5032741;28;20392;-65
2022/05/13 01:26:47;;;;;;;6.93;3.05;;;;;;;;;;5033033;28;20056;-69
2022/05/13 01:29:13;;;;;;;7.90;2.65;;;;;;;;;;5032892;28;20163;-69
2022/05/13 01:31:43;;;;;;;7.05;2.72;;;;;;;;;;5032918;28;20033;-67
2022/05/13 01:34:11;;;;;;;5.63;2.85;;;;;;;;;;5033530;28;20029;-66
2022/05/13 01:36:39;;;;;;;6.65;2.58;;;;;;;;;;5033219;28;20022;-69
2022/05/13 01:39:05;;;;;;;8.00;2.60;;;;;;;;;;5033502;28;20021;-68
2022/05/13 01:41:31;;;;;;;5.97;2.90;;;;;;;;;;5032851;28;20029;-67
2022/05/13 01:43:57;;;;;;;8.38;3.25;;;;;;;;;;5032397;28;20453;-65
2022/05/13 01:46:23;;;;;;;7.43;3.00;;;;;;;;;;5032610;28;20196;-69
2022/05/13 01:48:49;;;;;;;10.57;3.10;;;;;;;;;;5032643;28;20026;-66
2022/05/13 01:51:15;;;;;;;5.13;3.35;;;;;;;;;;5032886;28;20335;-69
2022/05/13 01:53:41;;;;;;;8.50;2.85;;;;;;;;;;5033114;28;20029;-67
2022/05/13 01:56:07;;;;;;;6.93;3.47;;;;;;;;;;5033395;28;20316;-67
2022/05/13 01:58:34;;;;;;;5.63;2.90;;;;;;;;;;5032014;28;20032;-69
2022/05/13 02:01:01;;;;;;;6.78;3.00;;;;;;;;;;5033452;28;20489;-68
2022/05/13 02:03:45;;;;;;;5.85;2.97;;;;;;;;;;5033169;28;20463;-69
2022/05/13 02:06:14;;;;;;;7.90;3.17;;;;;;;;;;5032988;28;20026;-69
2022/05/13 02:08:40;;;;;;;8.70;3.40;;;;;;;;;;5033064;28;20470;-66
2022/05/13 02:11:06;;;;;;;7.13;3.03;;;;;;;;;;5032488;28;20037;-68
2022/05/13 02:13:32;;;;;;;5.57;3.10;;;;;;;;;;5032146;28;20029;-68
2022/05/13 02:15:58;;;;;;;5.30;2.80;;;;;;;;;;5032251;28;20095;-66
2022/05/13 02:18:24;;;;;;;5.63;3.03;;;;;;;;;;5031994;28;20064;-70
2022/05/13 02:20:49;;;;;;;13.10;2.92;;;;;;;;;;5032426;28;20052;-69
2022/05/13 02:23:18;;;;;;;9.25;3.05;;;;;;;;;;5031758;28;20474;-64
2022/05/13 02:25:44;;;;;;;11.90;3.40;;;;;;;;;;5032404;28;20072;-66
2022/05/13 02:28:09;;;;;;;8.38;3.00;;;;;;;;;;5032545;28;20111;-67
2022/05/13 02:30:35;;;;;;;6.45;2.80;;;;;;;;;;5032591;28;20410;-67
2022/05/13 02:33:01;;;;;;;6.63;3.17;;;;;;;;;;5032783;28;20530;-69
2022/05/13 02:35:27;;;;;;;7.30;3.25;;;;;;;;;;5032584;28;20018;-68
2022/05/13 02:37:53;;;;;;;6.88;3.65;;;;;;;;;;5032753;28;20470;-67
2022/05/13 02:40:20;;;;;;;8.23;3.30;;;;;;;;;;5032541;28;20040;-64
2022/05/13 02:42:46;;;;;;;5.97;2.95;;;;;;;;;;5032375;28;20495;-64
2022/05/13 02:45:11;;;;;;;7.25;3.25;;;;;;;;;;5031724;28;20033;-64
2022/05/13 02:47:38;;;;;;;8.93;3.28;;;;;;;;;;5031688;28;20029;-68
2022/05/13 02:50:21;;;;;;;5.80;3.60;;;;;;;;;;5031374;28;20029;-66
2022/05/13 02:52:52;;;;;;;7.82;3.72;;;;;;;;;;5030666;28;20022;-67
2022/05/13 02:55:19;;;;;;;7.00;3.40;;;;;;;;;;5031127;28;20026;-68
2022/05/13 02:57:45;;;;;;;5.65;3.03;;;;;;;;;;5032474;28;20029;-66
2022/05/13 03:00:12;;;;;;;8.57;3.38;;;;;;;;;;5032469;28;20032;-64
2022/05/13 03:02:38;;;;;;;6.07;2.92;;;;;;;;;;5032162;28;20033;-68
2022/05/13 03:05:04;;;;;;;9.68;3.15;;;;;;;;;;5032341;28;20112;-68
2022/05/13 03:07:30;;;;;;;8.90;3.47;;;;;;;;;;5032294;28;20034;-69
2022/05/13 03:09:56;;;;;;;7.93;3.20;;;;;;;;;;5032031;28;20048;-66
2022/05/13 03:12:21;;;;;;;6.13;3.20;;;;;;;;;;5032098;28;20487;-68
2022/05/13 03:14:47;;;;;;;8.68;3.30;;;;;;;;;;5031746;28;20148;-69
2022/05/13 03:17:12;;;;;;;5.68;3.17;;;;;;;;;;5031131;28;20487;-65
2022/05/13 03:19:39;;;;;;;6.97;3.25;;;;;;;;;;5031491;28;20022;-69
2022/05/13 03:22:05;;;;;;;7.40;3.28;;;;;;;;;;5031349;28;20017;-68
2022/05/13 03:24:31;;;;;;;7.47;3.10;;;;;;;;;;5031524;28;20060;-68
2022/05/13 03:26:57;;;;;;;5.45;3.33;;;;;;;;;;5032212;28;20049;-69
2022/05/13 03:29:23;;;;;;;6.53;3.17;;;;;;;;;;5032403;28;20100;-68
2022/05/13 03:31:49;;;;;;;13.55;4.63;;;;;;;;;;5032162;28;20031;-67
2022/05/13 03:34:14;;;;;;;6.72;3.15;;;;;;;;;;5032245;28;20026;-69
2022/05/13 03:36:40;;;;;;;4.78;2.65;;;;;;;;;;5036110;28;20025;-69
2022/05/13 03:39:05;;;;;;;10.90;3.60;;;;;;;;;;5035996;28;20129;-69
2022/05/13 03:41:31;;;;;;;4.85;2.67;;;;;;;;;;5034882;28;20045;-67
2022/05/13 03:43:57;;;;;;;17.15;4.25;;;;;;;;;;5034796;28;20541;-64
2022/05/13 03:46:22;;;;;;;9.85;3.05;;;;;;;;;;5034744;28;20117;-69
2022/05/13 03:48:48;;;;;;;6.05;3.20;;;;;;;;;;5035073;28;20101;-64
2022/05/13 03:51:14;;;;;;;6.32;2.75;;;;;;;;;;5035527;28;20410;-68
2022/05/13 03:53:39;;;;;;;4.72;2.60;;;;;;;;;;5035382;28;20076;-69
2022/05/13 03:56:05;;;;;;;7.53;2.88;;;;;;;;;;5035409;28;20104;-68
2022/05/13 03:58:31;;;;;;;7.55;2.63;;;;;;;;;;5035302;28;20084;-64
2022/05/13 04:00:57;;;;;;;7.30;2.63;;;;;;;;;;5035302;28;20025;-64
2022/05/13 04:03:23;;;;;;;7.13;2.50;;;;;;;;;;5035650;28;20030;-69
2022/05/13 04:11:17;;;;;;;9.65;2.88;;;;;;;;;;5035547;28;20056;-69
2022/05/13 04:16:27;;;;;;;5.80;2.50;;;;;;;;;;5034955;28;20528;-68
2022/05/13 04:18:53;;;;;;;5.88;2.40;;;;;;;;;;5034306;28;20013;-67
2022/05/13 04:21:32;;;;;;;4.60;2.50;;;;;;;;;;5034352;28;20017;-67
2022/05/13 04:24:00;;;;;;;7.20;2.42;;;;;;;;;;5033797;28;20534;-68
2022/05/13 04:26:26;;;;;;;5.00;2.50;;;;;;;;;;5034617;28;20033;-68
2022/05/13 04:28:53;;;;;;;8.30;2.85;;;;;;;;;;5035122;28;20022;-69
2022/05/13 04:31:24;;;;;;;7.47;2.50;;;;;;;;;;5034641;28;20025;-68
2022/05/13 04:33:51;;;;;;;4.85;2.35;;;;;;;;;;5034516;28;20049;-65
2022/05/13 04:36:17;;;;;;;7.10;2.45;;;;;;;;;;5034893;28;20471;-68
2022/05/13 04:38:44;;;;;;;6.53;2.50;;;;;;;;;;5034966;28;20030;-69
2022/05/13 04:43:56;;;;;;;6.43;2.70;;;;;;;;;;5033496;28;20080;-68
2022/05/13 04:46:22;;;;;;;6.90;3.10;;;;;;;;;;5032879;28;20030;-68
2022/05/13 04:48:48;;;;;;;6.50;2.70;;;;;;;;;;5033882;28;20033;-68
2022/05/13 04:51:17;;;;;;;5.95;2.50;;;;;;;;;;5034309;28;20116;-69
2022/05/13 04:53:43;;;;;;;7.95;2.75;;;;;;;;;;5034124;28;20025;-68
2022/05/13 04:56:09;;;;;;;8.32;2.60;;;;;;;;;;5034117;28;20028;-69
2022/05/13 04:58:36;;;;;;;6.18;2.70;;;;;;;;;;5033884;28;20032;-66
2022/05/13 05:01:06;;;;;;;7.75;2.55;;;;;;;;;;5034094;28;20033;-68
2022/05/13 05:03:32;;;;;;;7.25;2.83;;;;;;;;;;5034030;28;20037;-69
2022/05/13 05:05:58;;;;;;;9.65;2.70;;;;;;;;;;5033898;28;20025;-67
2022/05/13 05:08:25;;;;;;;9.65;2.58;;;;;;;;;;5033851;28;20018;-68
2022/05/13 05:10:50;;;;;;;4.50;2.55;;;;;;;;;;5033354;28;20117;-69
2022/05/13 05:13:22;;;;;;;7.65;3.00;;;;;;;;;;5033032;28;20104;-66
2022/05/13 05:15:48;;;;;;;5.75;2.85;;;;;;;;;;5033078;28;20072;-69
2022/05/13 05:18:14;;;;;;;4.55;2.35;;;;;;;;;;5033144;28;20405;-68
2022/05/13 05:20:41;;;;;;;5.57;2.40;;;;;;;;;;5033978;28;20049;-68
2022/05/13 05:23:07;;;;;;;5.32;2.30;;;;;;;;;;5033844;28;20060;-68
2022/05/13 05:25:33;;;;;;;5.85;2.60;;;;;;;;;;5033721;28;20060;-68
2022/05/13 05:27:59;;;;;;;7.10;3.10;;;;;;;;;;5033285;28;20055;-69
2022/05/13 05:30:25;;;;;;;6.80;2.58;;;;;;;;;;5033836;28;20030;-68
2022/05/13 05:32:52;;;;;;;10.35;2.60;;;;;;;;;;5034087;28;20021;-68
2022/05/13 05:35:22;;;;;;;6.78;2.40;;;;;;;;;;5033770;28;20104;-69
2022/05/13 05:37:47;;;;;;;5.00;2.47;;;;;;;;;;5033196;28;20021;-68
2022/05/13 05:40:14;;;;;;;17.83;3.33;;;;;;;;;;5032480;28;20045;-69
2022/05/13 05:42:41;;;;;;;11.85;2.90;;;;;;;;;;5032183;28;20049;-69
2022/05/13 05:45:10;;;;;;;4.03;2.45;;;;;;;;;;5032511;28;20069;-68
2022/05/13 05:47:36;;;;;;;4.22;2.33;;;;;;;;;;5032660;28;20079;-67
2022/05/13 05:50:05;;;;;;;8.45;2.60;;;;;;;;;;5033166;28;20116;-67
2022/05/13 05:52:31;;;;;;;7.40;2.50;;;;;;;;;;5033215;28;20060;-69
2022/05/13 05:57:54;;;;;;;6.00;2.58;;;;;;;;;;5032510;28;20040;-68
2022/05/13 06:00:20;;;;;;;10.52;2.88;;;;;;;;;;5032260;28;20047;-67
2022/05/13 06:02:45;;;;;;;15.45;2.85;;;;;;;;;;5032128;28;20026;-68
2022/05/13 06:05:11;;;;;;;11.77;3.00;;;;;;;;;;5032214;28;20040;-69
2022/05/13 06:07:36;;;;;;;8.02;2.60;;;;;;;;;;5032693;28;20493;-69
2022/05/13 06:10:02;;;;;;;17.73;2.28;;;;;;;;;;5033183;28;20058;-68
2022/05/13 06:12:27;;;;;;;5.93;2.10;;;;;;;;;;5032568;28;20051;-64
2022/05/13 06:14:53;;;;;;;8.90;1.98;;;;;;;;;;5032998;28;20156;-69
2022/05/13 06:17:18;;;;;;;5.53;1.80;;;;;;;;;;5033069;28;20052;-69
2022/05/13 06:19:44;;;;;;;5.63;1.83;;;;;;;;;;5032872;28;20049;-68
2022/05/13 06:22:09;;;;;;;4.68;1.70;;;;;;;;;;5032953;28;20030;-63
2022/05/13 06:24:35;;;;;;;6.28;1.70;;;;;;;;;;5032676;28;20048;-69
2022/05/13 06:27:00;;;;;;;5.93;1.40;;;;;;;;;;5032350;28;20112;-68
2022/05/13 06:29:26;;;;;;;8.25;1.80;;;;;;;;;;5031928;28;20518;-67
2022/05/13 06:31:53;;;;;;;4.63;1.38;;;;;;;;;;5031914;28;20040;-69
2022/05/13 06:34:19;;;;;;;4.63;1.58;;;;;;;;;;5031837;28;20075;-68
2022/05/13 06:36:45;;;;;;;5.78;2.00;;;;;;;;;;5032184;28;20022;-68
2022/05/13 06:39:10;;;;;;;6.03;1.65;;;;;;;;;;5032319;28;20043;-63
2022/05/13 06:41:37;;;;;;;3.42;1.33;;;;;;;;;;5031745;28;20029;-68
2022/05/13 06:44:08;;;;;;;4.05;1.35;;;;;;;;;;5032234;28;20068;-68
2022/05/13 06:46:35;;;;;;;5.45;1.60;;;;;;;;;;5032536;28;20162;-66
2022/05/13 06:49:04;;;;;;;4.38;1.35;;;;;;;;;;5032651;28;20022;-69
2022/05/13 06:51:31;;;;;;;6.13;1.48;;;;;;;;;;5032164;28;20037;-69
2022/05/13 06:53:57;;;;;;;6.57;1.60;;;;;;;;;;5032326;28;20026;-67
2022/05/13 06:56:23;;;;;;;4.10;1.30;;;;;;;;;;5032237;28;20018;-66
2022/05/13 06:58:48;;;;;;;10.55;1.98;;;;;;;;;;5032601;28;20024;-67
2022/05/13 07:01:14;;;;;;;5.97;1.30;;;;;;;;;;5032494;28;20471;-67
2022/05/13 07:03:39;;;;;;;5.78;1.30;;;;;;;;;;5025992;28;20124;-67
2022/05/13 07:06:05;;;;;;;4.72;1.20;;;;;;;;;;5030978;28;20055;-69
2022/05/13 07:08:31;;;;;;;4.68;1.05;;;;;;;;;;5016301;28;20516;-69
2022/05/13 07:10:56;;;;;;;6.72;1.45;;;;;;;;;;5015054;28;20028;-67
2022/05/13 07:13:22;;;;;;;6.63;1.45;;;;;;;;;;5016386;28;20034;-64
2022/05/13 07:15:47;;;;;;;4.47;1.40;;;;;;;;;;5016497;28;20051;-68
2022/05/13 07:18:13;;;;;;;4.05;1.30;;;;;;;;;;5016313;28;20026;-64
2022/05/13 07:20:39;;;;;;;3.28;1.20;;;;;;;;;;5028799;28;20464;-65
2022/05/13 07:23:05;;;;;;;3.28;1.70;;;;;;;;;;5021194;28;20026;-66
2022/05/13 07:25:33;;;;;;;4.43;1.35;;;;;;;;;;5030409;28;20034;-65
2022/05/13 07:28:00;;;;;;;2.55;1.05;;;;;;;;;;5036049;28;20029;-64
2022/05/13 07:30:25;;;;;;;3.00;1.15;;;;;;;;;;5035883;28;20250;-65
2022/05/13 07:32:52;;;;;;;4.60;1.30;;;;;;;;;;5036056;28;20076;-66
2022/05/13 07:35:18;;;;;;;4.97;1.20;;;;;;;;;;5035753;28;20371;-66
2022/05/13 07:37:44;;;;;;;3.03;1.20;;;;;;;;;;5035927;28;20107;-69
2022/05/13 07:42:55;;;;;;;5.30;1.17;;;;;;;;;;5035668;28;20053;-66
2022/05/13 07:45:20;;;;;;;9.82;1.55;;;;;;;;;;5035464;28;20029;-69
2022/05/13 07:47:46;;;;;;;3.80;1.40;;;;;;;;;;5035831;28;20025;-68
2022/05/13 07:50:14;;;;;;;3.10;1.13;;;;;;;;;;5035502;28;20368;-64
2022/05/13 07:52:40;;;;;;;8.27;1.15;;;;;;;;;;5035304;28;20029;-68
2022/05/13 07:55:11;;;;;;;7.28;1.25;;;;;;;;;;5035458;28;20036;-68
2022/05/13 07:57:41;;;;;;;4.80;1.13;;;;;;;;;;5034830;28;20479;-69
2022/05/13 08:00:32;;;;;;;5.30;1.48;;;;;;;;;;5035499;28;20447;-69
2022/05/13 08:03:09;;;;;;;3.60;1.00;;;;;;;;;;5035384;28;20394;-69
2022/05/13 08:05:40;;;;;;;7.60;1.50;;;;;;;;;;5035364;28;20032;-70
2022/05/13 08:08:18;;;;;;;3.30;0.90;;;;;;;;;;5035119;28;20441;-69
2022/05/13 08:10:51;;;;;;;2.60;0.85;;;;;;;;;;5035326;28;20029;-68
2022/05/13 08:13:17;;;;;;;4.97;1.13;;;;;;;;;;5035167;28;20036;-69
2022/05/13 08:15:43;;;;;;;4.10;1.20;;;;;;;;;;5035109;28;20017;-71
2022/05/13 08:18:08;;;;;;;3.42;0.95;;;;;;;;;;5034903;28;20116;-66
2022/05/13 08:20:35;;;;;;;1.77;0.80;;;;;;;;;;5034485;28;20064;-67
2022/05/13 08:23:01;;;;;;;3.08;1.08;;;;;;;;;;5033884;28;20029;-70
2022/05/13 08:25:26;;;;;;;8.18;1.45;;;;;;;;;;5034808;28;20033;-70
2022/05/13 08:27:53;;;;;;;4.13;1.15;;;;;;;;;;5034915;28;20030;-70
2022/05/13 08:30:19;;;;;;;4.13;1.00;;;;;;;;;;5034664;28;20033;-70
2022/05/13 08:32:45;;;;;;;5.20;1.13;;;;;;;;;;5034953;28;20096;-67
2022/05/13 08:35:12;;;;;;;5.20;1.40;;;;;;;;;;5034737;28;20025;-66
2022/05/13 08:37:49;;;;;;;5.35;1.00;;;;;;;;;;5034506;28;20075;-66
2022/05/13 08:40:44;;;;;;;3.63;1.25;;;;;;;;;;5034487;28;20023;-69
2022/05/13 08:43:14;;;;;;;2.40;0.93;;;;;;;;;;5034298;28;20052;-68
2022/05/13 08:45:50;;;;;;;6.13;1.20;;;;;;;;;;5034386;28;20028;-70
2022/05/13 08:48:20;;;;;;;4.55;1.10;;;;;;;;;;5034120;28;20076;-64
2022/05/13 08:51:00;;;;;;;3.67;1.20;;;;;;;;;;5034258;28;20025;-66
2022/05/13 08:53:38;;;;;;;3.45;0.90;;;;;;;;;;5034238;28;20116;-68
2022/05/13 08:56:10;;;;;;;3.78;1.23;;;;;;;;;;5034359;28;20029;-69
2022/05/13 08:58:44;;;;;;;8.02;1.55;;;;;;;;;;5034436;28;20030;-69
2022/05/13 09:01:14;;;;;;;5.00;1.38;;;;;;;;;;5034154;28;20025;-69
2022/05/13 09:03:41;;;;;;;3.88;1.02;;;;;;;;;;5034083;28;20108;-69
2022/05/13 09:06:21;;;;;;;5.88;1.30;;;;;;;;;;5033958;28;20029;-66
2022/05/13 09:08:46;;;;;;;7.38;1.00;;;;;;;;;;5034231;28;20029;-69
2022/05/13 09:11:28;;;;;;;5.60;1.40;;;;;;;;;;5033956;28;20025;-69
2022/05/13 09:14:08;;;;;;;3.70;1.52;;;;;;;;;;5034070;28;20021;-68
2022/05/13 09:16:49;;;;;;;9.07;1.60;;;;;;;;;;5032379;28;20360;-69
2022/05/13 09:19:41;;;;;;;6.28;1.50;;;;;;;;;;5026663;28;20060;-68
2022/05/13 09:22:09;;;;;;;5.50;1.30;;;;;;;;;;5009400;28;20168;-67
2022/05/13 09:24:35;;;;;;;5.20;1.00;;;;;;;;;;5026758;28;20441;-70
2022/05/13 09:27:00;;;;;;;4.68;1.33;;;;;;;;;;5029045;28;20029;-70
2022/05/13 09:29:40;;;;;;;5.13;1.70;;;;;;;;;;5022371;28;20037;-68
2022/05/13 09:32:12;;;;;;;7.22;1.80;;;;;;;;;;5013794;28;20034;-68
2022/05/13 09:34:46;;;;;;;3.83;1.10;;;;;;;;;;5013455;28;20029;-69
2022/05/13 09:37:18;;;;;;;8.43;1.40;;;;;;;;;;5013459;28;20526;-69
2022/05/13 09:39:46;;;;;;;7.80;1.83;;;;;;;;;;5013691;28;20037;-69
2022/05/13 09:42:37;;;;;;;4.40;1.13;;;;;;;;;;5013694;28;20092;-67
2022/05/13 09:45:29;;;;;;;3.47;1.20;;;;;;;;;;5013363;28;20121;-67
2022/05/13 09:48:12;;;;;;;3.22;1.20;;;;;;;;;;5013688;28;20044;-68
2022/05/13 09:51:10;;;;;;;2.88;1.20;;;;;;;;;;5013261;28;20379;-66
2022/05/13 09:53:37;;;;;;;2.42;1.00;;;;;;;;;;4972087;28;20090;-66
2022/05/13 09:56:04;;;;;;;3.58;1.05;;;;;;;;;;4972331;28;20043;-66
2022/05/13 09:58:34;;;;;;;4.03;0.90;;;;;;;;;;4972212;28;20042;-69
2022/05/13 10:01:05;;;;;;;;;;;;;;;;;;4972848;28;20062;-69
2022/05/13 10:03:41;;;;;;;9.07;1.55;;;;;;;;;;4971692;28;20437;-69
2022/05/13 10:06:10;;;;;;;4.40;1.30;;;;;;;;;;4972217;28;20031;-67
2022/05/13 10:13:57;;;;;;;9.20;2.30;;;;;;;;;;4971827;28;20042;-69
2022/05/13 10:14:35;;;;;;;22.02;2.38;;;;;;;;;;4972344;28;20443;-68
2022/05/13 10:17:12;;;;;;;5.97;1.20;;;;;;;;;;4971944;28;20457;-66
2022/05/13 10:19:58;;;;;;;5.75;1.38;;;;;;;;;;4988298;28;20376;-69
2022/05/13 10:22:35;;;;;;;7.30;1.95;;;;;;;;;;4991249;28;20065;-68
2022/05/13 10:25:09;;;;;;;6.38;1.70;;;;;;;;;;4991210;28;20038;-62
2022/05/13 10:27:39;;;;;;;5.65;1.42;;;;;;;;;;4990915;28;20447;-67
2022/05/13 10:30:04;;;;;;;;;;;;;;;;;;5003259;28;20368;-68
2022/05/13 10:32:58;;;;;;;4.57;1.85;;;;;;;;;;5012793;28;19924;-68
2022/05/13 10:35:31;;;;;;;5.25;1.60;;;;;;;;;;5012121;28;20452;-67
2022/05/13 10:38:08;;;;;;;3.95;1.52;;;;;;;;;;5012923;28;20021;-68
2022/05/13 10:40:41;;;;;;;5.45;1.50;;;;;;;;;;5019606;28;20430;-66
2022/05/13 10:43:14;;;;;;;4.35;1.55;;;;;;;;;;5032209;28;20045;-68
2022/05/13 10:45:41;;;;;;;6.05;1.70;;;;;;;;;;5031661;28;20030;-67
2022/05/13 10:48:27;;;;;;;8.27;1.98;;;;;;;;;;5032029;28;20029;-67
2022/05/13 10:51:05;;;;;;;5.63;1.40;;;;;;;;;;5032407;28;20505;-66
2022/05/13 10:53:57;;;;;;;5.45;1.20;;;;;;;;;;5032196;28;20137;-68
2022/05/13 10:56:38;;;;;;;6.60;1.40;;;;;;;;;;5032430;28;20021;-66
2022/05/13 10:59:32;;;;;;;5.55;1.58;;;;;;;;;;5032359;28;20025;-68
2022/05/13 11:02:33;;;;;;;6.88;1.50;;;;;;;;;;5032132;28;20021;-63
2022/05/13 11:05:11;;;;;;;4.72;1.38;;;;;;;;;;5030842;28;20382;-68
2022/05/13 11:07:43;;;;;;;5.55;1.40;;;;;;;;;;5032184;28;20025;-63
2022/05/13 11:10:27;;;;;;;5.78;1.58;;;;;;;;;;5032308;28;20032;-63
2022/05/13 11:13:11;;;;;;;3.97;1.30;;;;;;;;;;5032220;28;20079;-68
2022/05/13 11:16:01;;;;;;;2.53;1.15;;;;;;;;;;5031687;28;20121;-69
2022/05/13 11:18:50;;;;;;;5.50;1.70;;;;;;;;;;5031303;28;20026;-67
2022/05/13 11:21:53;;;;;;;6.82;1.20;;;;;;;;;;5012452;28;20030;-68
2022/05/13 11:27:43;;;;;;;3.58;1.38;;;;;;;;;;5031962;28;20036;-71
2022/05/13 11:30:15;;;;;;;9.88;2.05;;;;;;;;;;5026168;28;20470;-68
2022/05/13 11:32:49;;;;;;;5.65;1.77;;;;;;;;;;5012378;28;20041;-70
2022/05/13 11:35:30;;;;;;;4.68;1.40;;;;;;;;;;5012119;28;20026;-65
2022/05/13 11:38:01;;;;;;;6.65;1.30;;;;;;;;;;5012271;28;20026;-68
2022/05/13 11:40:30;;;;;;;7.13;1.52;;;;;;;;;;5027246;28;20492;-71
2022/05/13 11:43:21;;;;;;;5.18;1.80;;;;;;;;;;5031706;28;20046;-67
2022/05/13 11:45:55;;;;;;;6.53;1.70;;;;;;;;;;5031683;28;20026;-71
2022/05/13 11:48:42;;;;;;;6.40;2.80;;;;;;;;;;5031530;28;20461;-70
2022/05/13 11:51:24;;;;;;;8.90;1.88;;;;;;;;;;5031802;28;20080;-69
2022/05/13 11:53:53;;;;;;;5.30;1.80;;;;;;;;;;5031727;28;20033;-70
2022/05/13 11:56:31;;;;;;;4.15;1.25;;;;;;;;;;5033119;28;20025;-69
2022/05/13 11:59:10;;;;;;;5.53;1.65;;;;;;;;;;5035350;28;20025;-68
2022/05/13 12:01:36;;;;;;;4.72;1.85;;;;;;;;;;5035372;28;20029;-66
2022/05/13 12:04:14;;;;;;;5.15;1.23;;;;;;;;;;5035083;28;20041;-62
2022/05/13 12:06:49;;;;;;;8.75;2.85;;;;;;;;;;5035654;28;20084;-69
2022/05/13 12:09:29;;;;;;;7.05;2.83;;;;;;;;;;5036343;28;20029;-68
2022/05/13 12:12:07;;;;;;;6.97;2.20;;;;;;;;;;5036325;28;20029;-68
2022/05/13 12:14:32;;;;;;;7.72;2.33;;;;;;;;;;5035214;28;20053;-65
2022/05/13 12:17:11;;;;;;;4.38;1.25;;;;;;;;;;5034867;28;20482;-64
2022/05/13 12:20:13;;;;;;;7.97;2.05;;;;;;;;;;5034949;28;20029;-67
2022/05/13 12:22:48;;;;;;;11.50;1.58;;;;;;;;;;5034841;28;20022;-69
2022/05/13 12:25:33;;;;;;;10.32;1.45;;;;;;;;;;5034497;28;20427;-67
2022/05/13 12:28:15;;;;;;;10.95;2.00;;;;;;;;;;5034613;28;20471;-69
2022/05/13 12:30:46;;;;;;;10.52;1.65;;;;;;;;;;5034658;28;20031;-68
2022/05/13 12:33:17;;;;;;;10.80;1.75;;;;;;;;;;5034516;28;20029;-69
2022/05/13 12:38:28;;;;;;;8.45;2.17;;;;;;;;;;5034265;28;20075;-67
2022/05/13 12:41:09;;;;;;;9.52;1.80;;;;;;;;;;5034535;28;20029;-68
2022/05/13 12:43:44;;;;;;;6.63;2.05;;;;;;;;;;5034266;28;20063;-62
2022/05/13 12:46:39;;;;;;;3.80;1.80;;;;;;;;;;5034445;28;20033;-68
2022/05/13 12:49:10;;;;;;;6.20;2.22;;;;;;;;;;5034463;28;20037;-64
2022/05/13 12:51:45;;;;;;;4.88;2.00;;;;;;;;;;5034349;28;20471;-64
2022/05/13 12:54:12;;;;;;;4.50;2.03;;;;;;;;;;5034229;28;20032;-65
2022/05/13 12:56:44;;;;;;;9.02;2.55;;;;;;;;;;5034279;28;20544;-67
2022/05/13 12:59:27;;;;;;;7.10;2.03;;;;;;;;;;5034057;28;20080;-66
2022/05/13 13:01:58;;;;;;;7.70;1.95;;;;;;;;;;5034340;28;20032;-66
2022/05/13 13:04:26;;;;;;;8.00;2.50;;;;;;;;;;5034043;28;20033;-68
2022/05/13 13:06:53;;;;;;;6.38;1.98;;;;;;;;;;5033785;28;20383;-66
2022/05/13 13:09:45;;;;;;;8.93;2.05;;;;;;;;;;5033534;28;20541;-62
2022/05/13 13:12:53;;;;;;;4.47;2.15;;;;;;;;;;5033866;28;20383;-64
2022/05/13 13:15:27;;;;;;;8.82;2.33;;;;;;;;;;5023636;28;20052;-66
2022/05/13 13:17:57;;;;;;;8.18;2.30;;;;;;;;;;5013963;28;20041;-62
2022/05/13 13:20:26;;;;;;;4.60;1.50;;;;;;;;;;5013911;28;20036;-67
2022/05/13 13:22:55;;;;;;;4.50;1.58;;;;;;;;;;5021177;28;20033;-68
2022/05/13 13:25:26;;;;;;;4.72;1.45;;;;;;;;;;5033242;28;20029;-64
2022/05/13 13:27:57;;;;;;;9.48;2.00;;;;;;;;;;5033231;28;20501;-66
2022/05/13 13:30:23;;;;;;;4.38;1.58;;;;;;;;;;5018557;28;20479;-63
2022/05/13 13:32:50;;;;;;;6.95;1.70;;;;;;;;;;5013695;28;20172;-63
2022/05/13 13:35:27;;;;;;;5.28;1.73;;;;;;;;;;5013600;28;20030;-63
2022/05/13 13:37:53;;;;;;;12.05;1.73;;;;;;;;;;5013727;28;20033;-66
2022/05/13 13:40:22;;;;;;;11.65;1.90;;;;;;;;;;5013512;28;20109;-61
2022/05/13 13:42:48;;;;;;;6.72;1.85;;;;;;;;;;5012929;28;20184;-63
2022/05/13 13:45:17;;;;;;;6.85;2.30;;;;;;;;;;5013504;28;20030;-62
2022/05/13 13:47:48;;;;;;;4.38;1.73;;;;;;;;;;5013713;28;20031;-62
2022/05/13 13:50:22;;;;;;;8.10;1.90;;;;;;;;;;5013582;28;20873;-66
2022/05/13 13:52:50;;;;;;;6.50;1.83;;;;;;;;;;5013329;28;20036;-65
2022/05/13 13:55:35;;;;;;;5.05;1.60;;;;;;;;;;5012856;28;20034;-62
2022/05/13 13:58:23;;;;;;;10.98;1.90;;;;;;;;;;5013459;28;20069;-66
2022/05/13 14:00:51;;;;;;;5.85;1.70;;;;;;;;;;5013355;28;20434;-63
2022/05/13 14:03:23;;;;;;;5.18;1.50;;;;;;;;;;5013075;28;20029;-63
2022/05/13 14:05:53;;;;;;;5.43;1.60;;;;;;;;;;5013381;28;20391;-66
2022/05/13 14:08:19;;;;;;;3.90;1.40;;;;;;;;;;5013250;28;20479;-62
2022/05/13 14:10:51;;;;;;;4.57;1.55;;;;;;;;;;5012971;28;20030;-63
2022/05/13 14:13:19;;;;;;;7.57;1.70;;;;;;;;;;5013042;28;20104;-65
2022/05/13 14:16:00;;;;;;;4.90;1.48;;;;;;;;;;5012980;28;20021;-68
2022/05/13 14:18:26;;;;;;;6.43;1.58;;;;;;;;;;5012754;28;20036;-61
2022/05/13 14:20:56;;;;;;;4.03;1.75;;;;;;;;;;5012229;28;20026;-66
2022/05/13 14:23:30;;;;;;;3.65;1.23;;;;;;;;;;5012655;28;20534;-64
2022/05/13 14:25:56;;;;;;;6.80;1.50;;;;;;;;;;5030035;28;20117;-63
2022/05/13 14:28:31;;;;;;;4.25;1.50;;;;;;;;;;5032223;28;20029;-64
2022/05/13 14:30:59;;;;;;;8.43;1.70;;;;;;;;;;5032355;28;20044;-64
2022/05/13 14:33:31;;;;;;;3.63;1.30;;;;;;;;;;5032211;28;20025;-63
2022/05/13 14:36:05;;;;;;;6.38;1.42;;;;;;;;;;5032612;28;20112;-65
2022/05/13 14:41:27;;;;;;;7.82;1.75;;;;;;;;;;5032271;28;20429;-63
2022/05/13 14:43:55;;;;;;;9.55;1.50;;;;;;;;;;5031562;28;20513;-66
2022/05/13 14:46:28;;;;;;;4.22;1.30;;;;;;;;;;5032271;28;20025;-66
2022/05/13 14:48:53;;;;;;;4.63;1.60;;;;;;;;;;5032184;28;20027;-64
2022/05/13 14:51:22;;;;;;;7.28;1.65;;;;;;;;;;5032186;28;20064;-62
2022/05/13 14:54:00;;;;;;;3.35;1.50;;;;;;;;;;5031919;28;20120;-64
2022/05/13 14:56:28;;;;;;;5.88;1.70;;;;;;;;;;5032324;28;20029;-62
2022/05/13 14:58:57;;;;;;;7.20;1.50;;;;;;;;;;5032346;28;20034;-63
2022/05/13 15:01:26;;;;;;;8.00;1.67;;;;;;;;;;5030937;28;20033;-62
2022/05/13 15:04:13;;;;;;;7.17;1.80;;;;;;;;;;5032173;28;20069;-63
2022/05/13 15:06:44;;;;;;;6.65;1.65;;;;;;;;;;5032357;28;20410;-66
2022/05/13 15:09:28;;;;;;;5.13;1.55;;;;;;;;;;5031027;28;20108;-63
2022/05/13 15:11:57;;;;;;;10.73;1.80;;;;;;;;;;5032345;28;20022;-63
2022/05/13 15:14:24;;;;;;;3.55;1.13;;;;;;;;;;5032120;28;20029;-63
2022/05/13 15:16:49;;;;;;;21.67;2.13;;;;;;;;;;5032158;28;20100;-64
2022/05/13 15:19:30;;;;;;;8.73;1.45;;;;;;;;;;5030653;28;20116;-63
2022/05/13 15:22:00;;;;;;;4.80;1.45;;;;;;;;;;5032013;28;20025;-66
2022/05/13 15:24:27;;;;;;;13.88;1.40;;;;;;;;;;5031787;28;20036;-63
2022/05/13 15:26:54;;;;;;;8.82;1.40;;;;;;;;;;5032105;28;20483;-64
2022/05/13 15:29:20;;;;;;;6.07;1.55;;;;;;;;;;5031962;28;20100;-62
2022/05/13 15:31:46;;;;;;;5.47;1.42;;;;;;;;;;5034390;28;20109;-65
2022/05/13 15:34:11;;;;;;;15.43;2.13;;;;;;;;;;5035803;28;20025;-63